»·PEaware :: DAL572 KSLC-KLAS

DAL572 :: KSLC-KLAS

FLIGHT INFORMATION

Flight Status: Arrived
Operator:
Delta Air Lines
More flights by this operator :: More flights under this callsign
Pilot: Anonymous 8799 (8799)
Aircraft: BOEING 737-800
(B738)
More flights by this aircraft type
Origin: KSLC Salt Lake City Intl
United States
Destination: KLAS McCarran Intl
United States
More flights between these airports :: More routes between these airports
Route: ZIONZ1 EHK KSINO SITEE3
File this flight plan on PilotEdge
Remarks:
Altitude:
(Current/Filed)
34,000ft
Speed:
(Current/Filed)
450kts
Departed: 30-Sep-18 10:07 AM
Arrived: 30-Sep-18 11:09 AM
Distance/Time
Traveled:
319nm/1:02
Distance/Time
To Go:
Arrived

Flight Plot

Page will automatically refresh every two minutes.

Flight plan parsing failed; only flown route is shown


Map Options




Map Legend


Flown Route
Filed Route
Departure Airport
Arrival Airport
Navaid (VOR, NDB)
Fix

Horizontal Profiles

Position Reports

Time Latitude Longitude Heading Altitude Ground
Speed
30-Sep-18 09:24 40.789218 -111.978811 170 4235ft 0kts
30-Sep-18 09:25 40.789218 -111.978811 170 4235ft 0kts
30-Sep-18 09:26 40.789218 -111.978811 170 4235ft 0kts
30-Sep-18 09:27 40.789218 -111.978811 170 4235ft 0kts
30-Sep-18 09:28 40.789218 -111.978811 170 4235ft 0kts
30-Sep-18 09:29 40.789218 -111.978811 170 4235ft 0kts
30-Sep-18 09:30 40.789218 -111.978810 170 4235ft 0kts
30-Sep-18 09:31 40.789218 -111.978811 170 4235ft 0kts
30-Sep-18 09:32 40.789218 -111.978811 169 4235ft 0kts
30-Sep-18 09:33 40.789218 -111.978811 170 4235ft 0kts
30-Sep-18 09:34 40.789218 -111.978811 170 4235ft 0kts
30-Sep-18 09:35 40.789218 -111.978811 170 4235ft 0kts
30-Sep-18 09:36 40.789218 -111.978811 170 4235ft 0kts
30-Sep-18 09:37 40.789218 -111.978811 170 4235ft 0kts
30-Sep-18 09:38 40.789218 -111.978811 170 4235ft 0kts
30-Sep-18 09:39 40.789218 -111.978811 170 4235ft 0kts
30-Sep-18 09:40 40.789218 -111.978811 170 4235ft 0kts
30-Sep-18 09:41 40.789218 -111.978811 170 4235ft 0kts
30-Sep-18 09:42 40.789218 -111.978811 170 4235ft 0kts
30-Sep-18 09:43 40.789218 -111.978811 170 4235ft 0kts
30-Sep-18 09:44 40.789218 -111.978811 170 4235ft 0kts
30-Sep-18 09:45 40.789218 -111.978811 170 4235ft 0kts
30-Sep-18 09:46 40.789218 -111.978810 170 4235ft 0kts
30-Sep-18 09:47 40.789218 -111.978811 170 4235ft 0kts
30-Sep-18 09:48 40.789218 -111.978811 169 4235ft 0kts
30-Sep-18 09:49 40.789218 -111.978811 169 4235ft 0kts
30-Sep-18 09:50 40.789218 -111.978811 170 4235ft 0kts
30-Sep-18 09:51 40.789218 -111.978810 170 4235ft 0kts
30-Sep-18 09:52 40.789218 -111.978811 170 4235ft 0kts
30-Sep-18 09:53 40.789468 -111.978950 138 4235ft 2kts
30-Sep-18 09:54 40.789626 -111.979534 84 4235ft 0kts
30-Sep-18 09:55 40.789626 -111.979538 84 4235ft 0kts
30-Sep-18 09:56 40.789626 -111.979538 84 4235ft 0kts
30-Sep-18 09:57 40.789626 -111.979537 84 4235ft 0kts
30-Sep-18 09:58 40.789626 -111.979537 84 4235ft 0kts
30-Sep-18 09:59 40.789628 -111.979496 85 4235ft 0kts
30-Sep-18 10:00 40.789663 -111.978606 84 4235ft 0kts
30-Sep-18 10:01 40.789663 -111.978606 84 4235ft 0kts
30-Sep-18 10:02 40.789664 -111.978591 84 4235ft 0kts
30-Sep-18 10:03 40.790513 -111.977158 358 4235ft 9kts
30-Sep-18 10:04 40.794697 -111.977656 354 4235ft 17kts
30-Sep-18 10:05 40.801088 -111.978409 354 4235ft 24kts
30-Sep-18 10:06 40.806508 -111.978554 353 4235ft 18kts
30-Sep-18 10:07 40.806982 -111.978575 8 4235ft 0kts
30-Sep-18 10:08 40.807427 -111.977949 86 4235ft 10kts
30-Sep-18 10:09 40.793931 -111.975359 176 4367ft 149kts
30-Sep-18 10:10 40.743235 -111.969675 175 6927ft 240kts
30-Sep-18 10:11 40.673427 -111.963985 195 8968ft 257kts
30-Sep-18 10:12 40.603559 -111.991206 198 11228ft 282kts
30-Sep-18 10:13 40.524050 -112.022919 199 13456ft 308kts
30-Sep-18 10:14 40.441210 -112.055842 199 15664ft 315kts
30-Sep-18 10:15 40.357922 -112.088797 200 19348ft 316kts
30-Sep-18 10:16 40.272682 -112.122508 201 22478ft 327kts
30-Sep-18 10:17 40.184436 -112.157339 201 25235ft 339kts
30-Sep-18 10:18 40.093245 -112.193253 202 27692ft 350kts
30-Sep-18 10:19 39.999085 -112.230223 202 30043ft 356kts
30-Sep-18 10:20 39.906160 -112.266505 203 32661ft 346kts
30-Sep-18 10:21 39.815661 -112.301862 203 34084ft 354kts
30-Sep-18 10:22 39.717164 -112.340449 202 34071ft 381kts
30-Sep-18 10:23 39.615652 -112.379888 202 34069ft 382kts
30-Sep-18 10:24 39.514319 -112.419136 203 34067ft 382kts
30-Sep-18 10:25 39.413033 -112.458235 203 34066ft 381kts
30-Sep-18 10:26 39.311949 -112.497133 203 34062ft 381kts
30-Sep-18 10:27 39.210686 -112.536014 204 34060ft 381kts
30-Sep-18 10:28 39.109406 -112.574782 203 34060ft 381kts
30-Sep-18 10:29 39.008144 -112.613442 203 34058ft 382kts
30-Sep-18 10:30 38.906957 -112.652037 202 34063ft 390kts
30-Sep-18 10:31 38.807334 -112.689607 201 34087ft 391kts
30-Sep-18 10:32 38.702836 -112.728840 201 34089ft 392kts
30-Sep-18 10:33 38.598340 -112.767962 201 34087ft 392kts
30-Sep-18 10:34 38.494362 -112.806807 201 34082ft 392kts
30-Sep-18 10:35 38.389608 -112.845808 201 34085ft 392kts
30-Sep-18 10:36 38.285103 -112.884651 202 34080ft 391kts
30-Sep-18 10:37 38.180587 -112.923385 201 34079ft 392kts
30-Sep-18 10:38 38.076537 -112.961843 202 34075ft 391kts
30-Sep-18 10:39 37.972087 -113.000361 202 34117ft 391kts
30-Sep-18 10:40 37.869832 -113.037961 202 34160ft 391kts
30-Sep-18 10:41 37.769311 -113.083841 216 34169ft 382kts
30-Sep-18 10:42 37.681423 -113.158450 217 34154ft 381kts
30-Sep-18 10:43 37.594637 -113.232462 217 34152ft 380kts
30-Sep-18 10:44 37.507030 -113.306913 217 34147ft 381kts
30-Sep-18 10:45 37.419211 -113.381331 217 34102ft 381kts
30-Sep-18 10:46 37.332204 -113.454757 217 34019ft 366kts
30-Sep-18 10:47 37.250054 -113.523908 217 34027ft 354kts
30-Sep-18 10:48 37.168279 -113.592606 217 33756ft 356kts
30-Sep-18 10:49 37.089330 -113.658744 216 31324ft 360kts
30-Sep-18 10:50 37.009386 -113.725326 215 29316ft 349kts
30-Sep-18 10:51 36.930701 -113.790796 215 27393ft 331kts
30-Sep-18 10:52 36.855563 -113.853191 214 25573ft 319kts
30-Sep-18 10:53 36.779441 -113.916283 214 23718ft 315kts
30-Sep-18 10:54 36.704965 -113.977883 214 21935ft 315kts
30-Sep-18 10:55 36.632202 -114.037933 214 20192ft 315kts
30-Sep-18 10:56 36.565870 -114.103211 233 18525ft 316kts
30-Sep-18 10:57 36.518879 -114.195271 235 16727ft 312kts
30-Sep-18 10:58 36.472996 -114.285194 235 15046ft 307kts
30-Sep-18 10:59 36.427958 -114.373110 235 13444ft 287kts
30-Sep-18 11:00 36.387485 -114.451921 235 12059ft 274kts
30-Sep-18 11:01 36.345633 -114.532612 233 11223ft 279kts
30-Sep-18 11:02 36.302424 -114.610186 233 9441ft 273kts
30-Sep-18 11:03 36.262353 -114.681815 232 7866ft 270kts
30-Sep-18 11:04 36.220335 -114.756638 231 6267ft 265kts
30-Sep-18 11:05 36.178922 -114.830260 231 4961ft 257kts
30-Sep-18 11:06 36.138715 -114.901573 232 4947ft 252kts
30-Sep-18 11:07 36.103010 -114.965016 230 4428ft 210kts
30-Sep-18 11:08 36.072740 -115.021423 252 3743ft 177kts
30-Sep-18 11:09 36.073711 -115.078079 264 2910ft 149kts
30-Sep-18 11:10 36.073746 -115.123179 262 2172ft 124kts
30-Sep-18 11:11 36.074146 -115.144621 295 2119ft 27kts
30-Sep-18 11:12 36.076941 -115.146556 359 2119ft 8kts
30-Sep-18 11:13 36.077746 -115.146698 330 2119ft 2kts
30-Sep-18 11:14 36.078422 -115.145196 102 2119ft 19kts
30-Sep-18 11:15 36.079485 -115.140228 41 2119ft 8kts
30-Sep-18 11:16 36.079821 -115.140008 24 2119ft 0kts

Navigation Log

Ident Type
Flight plan parsing failed, navigation log unavailable